Yacolt, Washington
Current Conditions -  °F | °C
As of 11:53 AM on Wednesday 17 Dec 2014 (Local Time) from KVUO Reporting Station
Overcast Overcast  
Wind Chill: 44°   Ceiling: 8500
Heat Index: 46°   Visibility: 10mi
Dew Point: 38°   Wind: 5mph
Humidity: 73%   Direction: 110°ESE
Pressure: 29.86"   Gusts: NA
Location:  45.87°N, 122.41°W
Report Text: KVUO 171953Z AUTO 11004KT 10SM SCT060 BKN085 OVC110 08/03 A2986 RMK AO2 RAE1856 SLP112 P0000 T00780033
Loading
Personal Weather Stations






























Interactive Weather Map New forecast layout! Learn more

10-Day Weather Forecast

Advertisements
Track Severe Weather on mobile